| time (UTC) | temp C | wind direction | speed KPH | gust KPH | rain 1hr cm | rain 24hr cm | rain mn cm | humidity % | barometer mb |
| 20260906110006 | 21 | 45 | 0.0 | 1.6 | 0.03 | 0.03 | 0.03 | 98 | 1008.0 |
| 20260906105006 | 21 | 135 | 0.0 | 0.0 | 0.03 | 0.03 | 0.03 | 98 | 1008.1 |
| 20260906103006 | 21 | 135 | 0.0 | 0.0 | 0.03 | 0.03 | 0.03 | 98 | 1007.9 |
| 20260906102006 | 21 | 135 | 0.0 | 0.0 | 0.03 | 0.03 | 0.03 | 98 | 1007.9 |
| 20260906101006 | 22 | 135 | 0.0 | 0.0 | 0.03 | 0.03 | 0.03 | 98 | 1007.7 |
| 20260906095006 | 22 | 180 | 0.0 | 0.0 | 0.00 | 0.00 | 0.00 | 98 | 1007.5 |
| 20260906094006 | 22 | 0 | 0.0 | 0.0 | 0.00 | 0.00 | 0.00 | 98 | 1007.2 |
| 20260906093006 | 22 | 315 | 0.0 | 0.0 | 0.00 | 0.00 | 0.00 | 98 | 1007.2 |
| 20260906092006 | 22 | 315 | 0.0 | 1.6 | 0.00 | 0.00 | 0.00 | 98 | 1007.1 |
| 20260906091006 | 22 | 272 | 0.0 | 1.6 | 0.00 | 0.00 | 0.00 | 98 | 1007.1 |
| 20260906090006 | 22 | 315 | 0.0 | 1.6 | 0.00 | 0.00 | 0.00 | 98 | 1007.0 |
| 20260906084006 | 22 | 315 | 0.0 | 0.0 | 0.00 | 0.00 | 0.00 | 98 | 1007.1 |
| 20260906083006 | 22 | 315 | 0.0 | 1.6 | 0.00 | 0.00 | 0.00 | 98 | 1007.1 |
| 20260906082006 | 22 | 227 | 0.0 | 3.2 | 0.00 | 0.00 | 0.00 | 98 | 1007.3 |
| 20260906080006 | 22 | 311 | 0.0 | 1.6 | 0.00 | 0.00 | 0.00 | 98 | 1007.2 |
| 20260906074006 | 22 | 315 | 0.0 | 0.0 | 0.00 | 0.00 | 0.00 | 98 | 1007.3 |
| 20260906073006 | 22 | 315 | 0.0 | 0.0 | 0.00 | 0.00 | 0.00 | 98 | 1007.5 |
| 20260906072006 | 22 | 315 | 0.0 | 0.0 | 0.00 | 0.00 | 0.00 | 98 | 1007.6 |
| 20260906071006 | 22 | 315 | 0.0 | 0.0 | 0.00 | 0.00 | 0.00 | 98 | 1007.9 |
| 20260906065006 | 23 | 270 | 0.0 | 3.2 | 0.00 | 0.00 | 0.00 | 98 | 1008.0 |
| 20260906064006 | 23 | 270 | 1.6 | 4.8 | 0.00 | 0.00 | 0.00 | 98 | 1007.8 |
| 20260906063005 | 23 | 270 | 0.0 | 3.2 | 0.00 | 0.00 | 0.00 | 98 | 1007.9 |
| 20260906061006 | 23 | 225 | 0.0 | 1.6 | 0.00 | 0.00 | 0.00 | 98 | 1008.1 |
| 20260906053006 | 23 | 225 | 0.0 | 4.8 | 0.00 | 0.00 | 0.00 | 98 | 1008.2 |
| 20260906052006 | 23 | 270 | 1.6 | 4.8 | 0.00 | 0.00 | 0.00 | 98 | 1008.2 |
| 20260906051006 | 23 | 270 | 1.6 | 3.2 | 0.00 | 0.00 | 0.00 | 98 | 1008.0 |
| 20260906050006 | 23 | 225 | 0.0 | 1.6 | 0.00 | 0.00 | 0.00 | 98 | 1008.0 |
| 20260906045006 | 23 | 270 | 0.0 | 1.6 | 0.00 | 0.00 | 0.00 | 98 | 1008.3 |
| 20260906044006 | 23 | 358 | 0.0 | 1.6 | 0.00 | 0.00 | 0.00 | 98 | 1008.7 |
| 20260906043006 | 23 | 313 | 0.0 | 1.6 | 0.00 | 0.00 | 0.00 | 98 | 1008.8 |
| 20260906042006 | 23 | 0 | 0.0 | 1.6 | 0.00 | 0.00 | 0.00 | 98 | 1008.9 |
| 20260906041006 | 23 | 45 | 1.6 | 3.2 | 0.00 | 0.00 | 0.00 | 98 | 1008.9 |
| 20260906035006 | 23 | 90 | 0.0 | 1.6 | 0.00 | 0.00 | 0.00 | 98 | 1009.1 |
| 20260906034006 | 23 | 90 | 0.0 | 1.6 | 0.00 | 0.00 | 0.00 | 98 | 1009.0 |
| 20260906032007 | 23 | 90 | 0.0 | 1.6 | 0.00 | 0.00 | 0.00 | 97 | 1008.9 |
| 20260906031006 | 23 | 270 | 0.0 | 0.0 | 0.00 | 0.00 | 0.00 | 97 | 1008.7 |
| 20260906030006 | 23 | 45 | 0.0 | 1.6 | 0.00 | 0.00 | 0.00 | 97 | 1008.7 |
| 20260906024006 | 23 | 45 | 0.0 | 3.2 | 0.00 | 0.00 | 0.00 | 96 | 1008.5 |
| 20260906023006 | 23 | 88 | 1.6 | 4.8 | 0.00 | 0.00 | 0.00 | 96 | 1008.5 |
| 20260906021006 | 23 | 315 | 0.0 | 1.6 | 0.00 | 0.00 | 0.00 | 95 | 1008.1 |
| 20260906020006 | 23 | 90 | 0.0 | 0.0 | 0.00 | 0.00 | 0.00 | 95 | 1008.0 |
| 20260906015006 | 23 | 90 | 0.0 | 0.0 | 0.00 | 0.00 | 0.00 | 94 | 1008.1 |
| 20260906014007 | 23 | 90 | 0.0 | 1.6 | 0.00 | 0.00 | 0.00 | 94 | 1008.2 |
| 20260906013007 | 23 | 46 | 1.6 | 4.8 | 0.00 | 0.00 | 0.00 | 94 | 1008.3 |
| 20260906012006 | 24 | 45 | 1.6 | 3.2 | 0.00 | 0.00 | 0.00 | 93 | 1008.4 |
| 20260906011006 | 24 | 90 | 0.0 | 1.6 | 0.00 | 0.00 | 0.00 | 93 | 1008.0 |
| 20260906010006 | 24 | 45 | 0.0 | 3.2 | 0.00 | 0.00 | 0.00 | 92 | 1008.0 |
| 20260906005006 | 24 | 314 | 1.6 | 4.8 | 0.00 | 0.00 | 0.00 | 92 | 1007.8 |
| 20260906004006 | 24 | 45 | 1.6 | 4.8 | 0.00 | 0.00 | 0.00 | 93 | 1008.0 |
| 20260906003007 | 24 | 47 | 0.0 | 4.8 | 0.00 | 0.00 | 0.00 | 93 | 1007.7 |
| 20260906002006 | 24 | 225 | 0.0 | 4.8 | 0.00 | 0.00 | 0.00 | 91 | 1008.0 |
| 20260906001006 | 24 | 180 | 0.0 | 9.7 | 0.00 | 0.00 | 0.00 | 89 | 1008.4 |
| 20260906000006 | 25 | 90 | 4.8 | 9.7 | 0.00 | 0.00 | 0.00 | 89 | 1008.7 |
| 20260905235006 | 25 | 135 | 0.0 | 4.8 | 0.00 | 0.00 | 0.00 | 86 | 1008.0 |
| 20260905234006 | 26 | 138 | 0.0 | 9.7 | 0.00 | 0.00 | 0.00 | 81 | 1008.0 |
| 20260905233006 | 27 | 90 | 4.8 | 4.8 | 0.00 | 0.00 | 0.00 | 78 | 1008.3 |
| 20260905232006 | 27 | 129 | 1.6 | 14.5 | 0.00 | 0.00 | 0.00 | 74 | 1007.5 |
| 20260905231007 | 28 | 2 | 6.4 | 24.1 | 0.00 | 0.00 | 0.00 | 68 | 1007.4 |
| 20260905230007 | 30 | 135 | 4.8 | 24.1 | 0.00 | 0.00 | 0.00 | 64 | 1008.1 |
| 20260905225007 | 31 | 357 | 1.6 | 4.8 | 0.00 | 0.00 | 0.00 | 77 | 1007.8 |
| 20260905224006 | 31 | 180 | 0.0 | 0.0 | 0.00 | 0.00 | 0.00 | 75 | 1007.2 |
| 20260905223007 | 31 | 180 | 0.0 | 0.0 | 0.00 | 0.00 | 0.00 | 72 | 1006.8 |
| 20260905222007 | 32 | 180 | 0.0 | 1.6 | 0.00 | 0.00 | 0.00 | 70 | 1006.5 |
| 20260905221006 | 32 | 183 | 0.0 | 1.6 | 0.00 | 0.00 | 0.00 | 68 | 1006.5 |
| 20260905220006 | 32 | 180 | 0.0 | 0.0 | 0.00 | 0.00 | 0.00 | 69 | 1006.3 |
| 20260905215006 | 32 | 180 | 0.0 | 0.0 | 0.00 | 0.00 | 0.00 | 68 | 1005.8 |
| 20260905214006 | 32 | 180 | 0.0 | 0.0 | 0.00 | 0.00 | 0.00 | 66 | 1006.2 |
| 20260905213006 | 33 | 180 | 0.0 | 1.6 | 0.00 | 0.00 | 0.00 | 65 | 1006.6 |
| 20260905212006 | 33 | 225 | 0.0 | 1.6 | 0.00 | 0.00 | 0.00 | 63 | 1006.8 |
| 20260905211006 | 33 | 225 | 0.0 | 0.0 | 0.00 | 0.00 | 0.00 | 63 | 1006.6 |
| 20260905210006 | 33 | 180 | 0.0 | 1.6 | 0.00 | 0.00 | 0.00 | 61 | 1006.1 |
| 20260905205006 | 35 | 180 | 1.6 | 9.7 | 0.00 | 0.00 | 0.00 | 58 | 1006.5 |
| 20260905204006 | 35 | 273 | 4.8 | 11.3 | 0.00 | 0.00 | 0.00 | 55 | 1006.7 |
| 20260905203006 | 35 | 270 | 1.6 | 9.7 | 0.00 | 0.00 | 0.00 | 54 | 1006.4 |
| 20260905201006 | 36 | 180 | 0.0 | 4.8 | 0.00 | 0.00 | 0.00 | 56 | 1006.2 |
| 20260905200006 | 36 | 338 | 3.2 | 8.0 | 0.00 | 0.00 | 0.00 | 53 | 1006.3 |
| 20260905193006 | 38 | 315 | 1.6 | 9.7 | 0.00 | 0.00 | 0.00 | 47 | 1006.8 |
| 20260905192006 | 40 | 220 | 0.0 | 4.8 | 0.00 | 0.00 | 0.00 | 47 | 1007.1 |
| 20260905190006 | 38 | 187 | 1.6 | 9.7 | 0.00 | 0.00 | 0.00 | 50 | 1007.6 |
| 20260905185006 | 37 | 270 | 1.6 | 12.9 | 0.00 | 0.00 | 0.00 | 51 | 1007.9 |
| 20260905184006 | 36 | 270 | 4.8 | 9.7 | 0.00 | 0.00 | 0.00 | 52 | 1008.0 |
| 20260905183006 | 37 | 275 | 4.8 | 9.7 | 0.00 | 0.00 | 0.00 | 49 | 1008.2 |
| 20260905182006 | 37 | 190 | 3.2 | 12.9 | 0.00 | 0.00 | 0.00 | 47 | 1008.5 |
| 20260905180006 | 37 | 232 | 4.8 | 12.9 | 0.00 | 0.00 | 0.00 | 49 | 1008.7 |
| 20260905175006 | 37 | 312 | 4.8 | 9.7 | 0.00 | 0.00 | 0.00 | 49 | 1008.7 |
| 20260905174005 | 36 | 138 | 1.6 | 11.3 | 0.00 | 0.00 | 0.00 | 54 | 1008.8 |
| 20260905173006 | 36 | 93 | 4.8 | 11.3 | 0.00 | 0.00 | 0.00 | 55 | 1008.9 |
| 20260905172006 | 35 | 188 | 3.2 | 12.9 | 0.00 | 0.00 | 0.00 | 57 | 1008.9 |
| 20260905170006 | 34 | 273 | 1.6 | 9.7 | 0.00 | 0.00 | 0.00 | 64 | 1009.1 |
| 20260905165006 | 33 | 263 | 1.6 | 12.9 | 0.00 | 0.00 | 0.00 | 64 | 1009.4 |
| 20260905163006 | 32 | 268 | 1.6 | 11.3 | 0.00 | 0.00 | 0.00 | 71 | 1009.6 |
| 20260905162006 | 32 | 311 | 0.0 | 12.9 | 0.00 | 0.00 | 0.00 | 71 | 1010.0 |
| 20260905161006 | 32 | 312 | 1.6 | 9.7 | 0.00 | 0.00 | 0.00 | 72 | 1010.0 |
| 20260905160006 | 31 | 225 | 1.6 | 9.7 | 0.00 | 0.00 | 0.00 | 73 | 1010.0 |
| 20260905155006 | 31 | 187 | 1.6 | 9.7 | 0.00 | 0.00 | 0.00 | 74 | 1010.3 |
| 20260905153006 | 31 | 268 | 8.0 | 14.5 | 0.00 | 0.00 | 0.00 | 74 | 1010.4 |
| 20260905151006 | 30 | 270 | 6.4 | 12.9 | 0.00 | 0.00 | 0.00 | 76 | 1010.6 |
| 20260905150006 | 30 | 228 | 3.2 | 11.3 | 0.00 | 0.00 | 0.00 | 79 | 1010.8 |
| 20260905145007 | 30 | 270 | 8.0 | 11.3 | 0.00 | 0.00 | 0.00 | 79 | 1010.8 |
| 20260905144006 | 29 | 270 | 4.8 | 12.9 | 0.00 | 0.00 | 0.00 | 81 | 1011.0 |
| 20260905143006 | 29 | 278 | 4.8 | 12.9 | 0.00 | 0.00 | 0.00 | 82 | 1011.0 |
| 20260905141006 | 28 | 276 | 6.4 | 14.5 | 0.00 | 0.00 | 0.00 | 84 | 1011.2 |
| 20260905140006 | 28 | 278 | 6.4 | 14.5 | 0.00 | 0.00 | 0.00 | 86 | 1011.1 |
| 20260905135006 | 28 | 312 | 6.4 | 11.3 | 0.00 | 0.00 | 0.00 | 87 | 1011.1 |
| 20260905134006 | 27 | 270 | 3.2 | 12.9 | 0.00 | 0.00 | 0.00 | 89 | 1011.0 |
| 20260905131006 | 27 | 274 | 4.8 | 12.9 | 0.00 | 0.00 | 0.00 | 93 | 1011.2 |
| 20260905130006 | 27 | 270 | 1.6 | 9.7 | 0.00 | 0.00 | 0.00 | 95 | 1011.1 |
| 20260905125006 | 26 | 229 | 4.8 | 11.3 | 0.00 | 0.00 | 0.00 | 97 | 1011.1 |
| 20260905124007 | 26 | 270 | 3.2 | 8.0 | 0.00 | 0.00 | 0.00 | 98 | 1011.2 |
| 20260905122006 | 25 | 270 | 0.0 | 4.8 | 0.00 | 0.00 | 0.00 | 98 | 1011.1 |
| 20260905121006 | 25 | 269 | 1.6 | 3.2 | 0.00 | 0.00 | 0.00 | 98 | 1011.1 |
| 20260905115006 | 24 | 225 | 0.0 | 1.6 | 0.00 | 0.00 | 0.00 | 98 | 1010.9 |
| 20260905114006 | 24 | 270 | 0.0 | 0.0 | 0.00 | 0.00 | 0.00 | 98 | 1010.8 |
| 20260905113007 | 24 | 270 | 0.0 | 0.0 | 0.00 | 0.00 | 0.00 | 98 | 1010.7 |
| 20260905112006 | 24 | 270 | 0.0 | 1.6 | 0.00 | 0.00 | 0.00 | 98 | 1010.6 |